sensor_id;sensor_type;location;lat;lon;timestamp;P1;durP1;ratioP1;P2;durP2;ratioP2
31680;SDS011;18281;51.364;9.566;2023-04-15T00:02:15;3.58;;;3.05;;
31680;SDS011;18281;51.364;9.566;2023-04-15T00:04:42;4.28;;;2.83;;
31680;SDS011;18281;51.364;9.566;2023-04-15T00:07:11;4.55;;;2.92;;
31680;SDS011;18281;51.364;9.566;2023-04-15T00:09:36;5.20;;;2.90;;
31680;SDS011;18281;51.364;9.566;2023-04-15T00:12:02;3.63;;;2.95;;
31680;SDS011;18281;51.364;9.566;2023-04-15T00:14:27;4.97;;;2.85;;
31680;SDS011;18281;51.364;9.566;2023-04-15T00:16:53;4.85;;;2.75;;
31680;SDS011;18281;51.364;9.566;2023-04-15T00:19:20;3.75;;;3.00;;
31680;SDS011;18281;51.364;9.566;2023-04-15T00:21:45;3.08;;;2.78;;
31680;SDS011;18281;51.364;9.566;2023-04-15T00:24:11;3.72;;;2.70;;
31680;SDS011;18281;51.364;9.566;2023-04-15T00:26:37;2.92;;;2.63;;
31680;SDS011;18281;51.364;9.566;2023-04-15T00:29:03;3.33;;;2.72;;
31680;SDS011;18281;51.364;9.566;2023-04-15T00:31:29;2.83;;;2.55;;
31680;SDS011;18281;51.364;9.566;2023-04-15T00:33:55;7.70;;;3.15;;
31680;SDS011;18281;51.364;9.566;2023-04-15T00:36:20;3.78;;;3.30;;
31680;SDS011;18281;51.364;9.566;2023-04-15T00:38:47;3.00;;;2.70;;
31680;SDS011;18281;51.364;9.566;2023-04-15T00:41:12;4.68;;;3.03;;
31680;SDS011;18281;51.364;9.566;2023-04-15T00:43:38;3.03;;;2.72;;
31680;SDS011;18281;51.364;9.566;2023-04-15T00:46:04;3.90;;;2.95;;
31680;SDS011;18281;51.364;9.566;2023-04-15T00:48:31;3.50;;;2.90;;
31680;SDS011;18281;51.364;9.566;2023-04-15T00:50:56;4.30;;;2.75;;
31680;SDS011;18281;51.364;9.566;2023-04-15T00:53:22;3.60;;;2.75;;
31680;SDS011;18281;51.364;9.566;2023-04-15T00:55:48;3.30;;;2.60;;
31680;SDS011;18281;51.364;9.566;2023-04-15T00:58:13;7.80;;;2.97;;
31680;SDS011;18281;51.364;9.566;2023-04-15T01:00:39;4.70;;;3.33;;
31680;SDS011;18281;51.364;9.566;2023-04-15T01:03:05;4.15;;;3.00;;
31680;SDS011;18281;51.364;9.566;2023-04-15T01:05:31;4.10;;;3.03;;
31680;SDS011;18281;51.364;9.566;2023-04-15T01:07:57;7.60;;;3.00;;
31680;SDS011;18281;51.364;9.566;2023-04-15T01:10:23;5.22;;;2.63;;
31680;SDS011;18281;51.364;9.566;2023-04-15T01:12:48;3.60;;;3.30;;
31680;SDS011;18281;51.364;9.566;2023-04-15T01:15:14;5.18;;;2.95;;
31680;SDS011;18281;51.364;9.566;2023-04-15T01:17:40;4.22;;;2.70;;
31680;SDS011;18281;51.364;9.566;2023-04-15T01:20:06;2.78;;;2.53;;
31680;SDS011;18281;51.364;9.566;2023-04-15T01:22:34;3.13;;;2.30;;
31680;SDS011;18281;51.364;9.566;2023-04-15T01:25:18;3.13;;;2.50;;
31680;SDS011;18281;51.364;9.566;2023-04-15T01:27:46;3.78;;;2.80;;
31680;SDS011;18281;51.364;9.566;2023-04-15T01:30:12;3.45;;;2.50;;
31680;SDS011;18281;51.364;9.566;2023-04-15T01:32:37;2.85;;;2.60;;
31680;SDS011;18281;51.364;9.566;2023-04-15T01:35:03;2.83;;;2.60;;
31680;SDS011;18281;51.364;9.566;2023-04-15T01:37:28;4.22;;;2.58;;
31680;SDS011;18281;51.364;9.566;2023-04-15T01:39:54;3.50;;;2.67;;
31680;SDS011;18281;51.364;9.566;2023-04-15T01:42:21;2.83;;;2.55;;
31680;SDS011;18281;51.364;9.566;2023-04-15T01:44:47;3.70;;;2.67;;
31680;SDS011;18281;51.364;9.566;2023-04-15T01:47:12;3.20;;;2.90;;
31680;SDS011;18281;51.364;9.566;2023-04-15T01:49:38;3.40;;;3.10;;
31680;SDS011;18281;51.364;9.566;2023-04-15T01:52:03;3.97;;;2.97;;
31680;SDS011;18281;51.364;9.566;2023-04-15T01:54:29;7.05;;;3.85;;
31680;SDS011;18281;51.364;9.566;2023-04-15T01:56:54;5.10;;;4.22;;
31680;SDS011;18281;51.364;9.566;2023-04-15T01:59:20;6.53;;;3.97;;
31680;SDS011;18281;51.364;9.566;2023-04-15T02:01:46;7.00;;;3.90;;
31680;SDS011;18281;51.364;9.566;2023-04-15T02:04:12;5.72;;;4.05;;
31680;SDS011;18281;51.364;9.566;2023-04-15T02:06:43;5.53;;;4.38;;
31680;SDS011;18281;51.364;9.566;2023-04-15T02:09:10;8.80;;;4.68;;
31680;SDS011;18281;51.364;9.566;2023-04-15T02:11:35;9.02;;;4.75;;
31680;SDS011;18281;51.364;9.566;2023-04-15T02:14:03;9.07;;;5.30;;
31680;SDS011;18281;51.364;9.566;2023-04-15T02:16:30;10.63;;;4.18;;
31680;SDS011;18281;51.364;9.566;2023-04-15T02:18:56;7.10;;;4.75;;
31680;SDS011;18281;51.364;9.566;2023-04-15T02:21:22;6.55;;;4.45;;
31680;SDS011;18281;51.364;9.566;2023-04-15T02:23:47;8.00;;;4.70;;
31680;SDS011;18281;51.364;9.566;2023-04-15T02:26:13;9.70;;;5.15;;
31680;SDS011;18281;51.364;9.566;2023-04-15T02:28:38;10.80;;;5.20;;
31680;SDS011;18281;51.364;9.566;2023-04-15T02:31:07;12.15;;;5.50;;
31680;SDS011;18281;51.364;9.566;2023-04-15T02:33:33;10.32;;;5.43;;
31680;SDS011;18281;51.364;9.566;2023-04-15T02:35:59;9.38;;;5.40;;
31680;SDS011;18281;51.364;9.566;2023-04-15T02:38:25;11.05;;;5.30;;
31680;SDS011;18281;51.364;9.566;2023-04-15T02:40:50;10.68;;;5.32;;
31680;SDS011;18281;51.364;9.566;2023-04-15T02:43:16;9.00;;;4.95;;
31680;SDS011;18281;51.364;9.566;2023-04-15T02:45:41;10.23;;;5.00;;
31680;SDS011;18281;51.364;9.566;2023-04-15T02:48:07;7.00;;;4.75;;
31680;SDS011;18281;51.364;9.566;2023-04-15T02:50:33;7.85;;;4.63;;
31680;SDS011;18281;51.364;9.566;2023-04-15T02:52:59;8.15;;;4.50;;
31680;SDS011;18281;51.364;9.566;2023-04-15T02:55:25;9.23;;;4.85;;
31680;SDS011;18281;51.364;9.566;2023-04-15T02:57:51;6.88;;;4.05;;
31680;SDS011;18281;51.364;9.566;2023-04-15T03:00:16;6.00;;;4.18;;
31680;SDS011;18281;51.364;9.566;2023-04-15T03:02:41;4.88;;;3.70;;
31680;SDS011;18281;51.364;9.566;2023-04-15T03:05:10;8.57;;;4.43;;
31680;SDS011;18281;51.364;9.566;2023-04-15T03:07:37;5.72;;;4.10;;
31680;SDS011;18281;51.364;9.566;2023-04-15T03:10:04;6.25;;;4.32;;
31680;SDS011;18281;51.364;9.566;2023-04-15T03:12:30;5.70;;;4.30;;
31680;SDS011;18281;51.364;9.566;2023-04-15T03:14:55;5.68;;;3.50;;
31680;SDS011;18281;51.364;9.566;2023-04-15T03:17:21;6.18;;;3.92;;
31680;SDS011;18281;51.364;9.566;2023-04-15T03:19:46;5.50;;;3.35;;
31680;SDS011;18281;51.364;9.566;2023-04-15T03:22:11;6.18;;;3.58;;
31680;SDS011;18281;51.364;9.566;2023-04-15T03:24:37;4.50;;;4.10;;
31680;SDS011;18281;51.364;9.566;2023-04-15T03:27:02;5.63;;;3.30;;
31680;SDS011;18281;51.364;9.566;2023-04-15T03:29:27;7.32;;;3.75;;
31680;SDS011;18281;51.364;9.566;2023-04-15T03:31:53;4.68;;;4.20;;
31680;SDS011;18281;51.364;9.566;2023-04-15T03:34:18;5.93;;;3.78;;
31680;SDS011;18281;51.364;9.566;2023-04-15T03:36:45;3.85;;;3.45;;
31680;SDS011;18281;51.364;9.566;2023-04-15T03:39:10;5.03;;;3.72;;
31680;SDS011;18281;51.364;9.566;2023-04-15T03:41:36;4.25;;;3.83;;
31680;SDS011;18281;51.364;9.566;2023-04-15T03:44:01;7.57;;;3.88;;
31680;SDS011;18281;51.364;9.566;2023-04-15T03:46:27;4.07;;;3.65;;
31680;SDS011;18281;51.364;9.566;2023-04-15T03:48:52;4.65;;;3.80;;
31680;SDS011;18281;51.364;9.566;2023-04-15T03:51:17;4.07;;;3.67;;
31680;SDS011;18281;51.364;9.566;2023-04-15T03:53:43;4.47;;;3.60;;
31680;SDS011;18281;51.364;9.566;2023-04-15T03:56:08;6.30;;;3.72;;
31680;SDS011;18281;51.364;9.566;2023-04-15T03:58:34;6.30;;;3.22;;
31680;SDS011;18281;51.364;9.566;2023-04-15T04:00:59;5.05;;;3.60;;
31680;SDS011;18281;51.364;9.566;2023-04-15T04:03:25;7.43;;;3.72;;
31680;SDS011;18281;51.364;9.566;2023-04-15T04:05:51;3.90;;;3.30;;
31680;SDS011;18281;51.364;9.566;2023-04-15T04:08:16;5.10;;;3.78;;
31680;SDS011;18281;51.364;9.566;2023-04-15T04:10:43;5.72;;;4.15;;
31680;SDS011;18281;51.364;9.566;2023-04-15T04:13:11;3.88;;;3.50;;
31680;SDS011;18281;51.364;9.566;2023-04-15T04:15:37;5.03;;;3.58;;
31680;SDS011;18281;51.364;9.566;2023-04-15T04:18:02;4.63;;;3.88;;
31680;SDS011;18281;51.364;9.566;2023-04-15T04:20:27;5.95;;;3.42;;
31680;SDS011;18281;51.364;9.566;2023-04-15T04:22:53;5.18;;;3.65;;
31680;SDS011;18281;51.364;9.566;2023-04-15T04:25:19;6.18;;;3.65;;
31680;SDS011;18281;51.364;9.566;2023-04-15T04:27:44;3.60;;;3.13;;
31680;SDS011;18281;51.364;9.566;2023-04-15T04:30:10;4.55;;;3.20;;
31680;SDS011;18281;51.364;9.566;2023-04-15T04:32:36;4.10;;;3.60;;
31680;SDS011;18281;51.364;9.566;2023-04-15T04:35:02;4.65;;;3.58;;
31680;SDS011;18281;51.364;9.566;2023-04-15T04:37:28;4.97;;;3.75;;
31680;SDS011;18281;51.364;9.566;2023-04-15T04:39:54;6.32;;;3.63;;
31680;SDS011;18281;51.364;9.566;2023-04-15T04:42:19;6.57;;;3.72;;
31680;SDS011;18281;51.364;9.566;2023-04-15T04:44:44;6.30;;;3.45;;
31680;SDS011;18281;51.364;9.566;2023-04-15T04:47:10;5.82;;;3.85;;
31680;SDS011;18281;51.364;9.566;2023-04-15T04:49:35;7.65;;;3.97;;
31680;SDS011;18281;51.364;9.566;2023-04-15T04:52:01;5.93;;;3.92;;
31680;SDS011;18281;51.364;9.566;2023-04-15T04:54:27;4.30;;;3.90;;
31680;SDS011;18281;51.364;9.566;2023-04-15T04:56:52;6.70;;;4.05;;
31680;SDS011;18281;51.364;9.566;2023-04-15T04:59:17;4.93;;;3.60;;
31680;SDS011;18281;51.364;9.566;2023-04-15T05:01:43;4.45;;;3.65;;
31680;SDS011;18281;51.364;9.566;2023-04-15T05:04:09;7.57;;;3.80;;
31680;SDS011;18281;51.364;9.566;2023-04-15T05:06:34;5.50;;;4.97;;
31680;SDS011;18281;51.364;9.566;2023-04-15T05:09:01;7.65;;;5.80;;
31680;SDS011;18281;51.364;9.566;2023-04-15T05:11:27;13.73;;;8.07;;
31680;SDS011;18281;51.364;9.566;2023-04-15T05:13:52;13.18;;;7.20;;
31680;SDS011;18281;51.364;9.566;2023-04-15T05:16:18;12.73;;;7.05;;
31680;SDS011;18281;51.364;9.566;2023-04-15T05:18:44;12.02;;;6.72;;
31680;SDS011;18281;51.364;9.566;2023-04-15T05:21:10;17.55;;;9.00;;
31680;SDS011;18281;51.364;9.566;2023-04-15T05:23:35;14.10;;;8.27;;
31680;SDS011;18281;51.364;9.566;2023-04-15T05:26:01;11.15;;;7.72;;
31680;SDS011;18281;51.364;9.566;2023-04-15T05:28:27;14.77;;;8.20;;
31680;SDS011;18281;51.364;9.566;2023-04-15T05:30:53;10.40;;;7.22;;
31680;SDS011;18281;51.364;9.566;2023-04-15T05:33:18;10.55;;;7.03;;
31680;SDS011;18281;51.364;9.566;2023-04-15T05:35:43;10.63;;;6.47;;
31680;SDS011;18281;51.364;9.566;2023-04-15T05:38:09;9.18;;;7.22;;
31680;SDS011;18281;51.364;9.566;2023-04-15T05:40:35;12.32;;;7.78;;
31680;SDS011;18281;51.364;9.566;2023-04-15T05:43:00;9.02;;;7.47;;
31680;SDS011;18281;51.364;9.566;2023-04-15T05:45:26;10.05;;;6.63;;
31680;SDS011;18281;51.364;9.566;2023-04-15T05:47:51;8.10;;;6.60;;
31680;SDS011;18281;51.364;9.566;2023-04-15T05:50:18;9.57;;;7.30;;
31680;SDS011;18281;51.364;9.566;2023-04-15T05:52:45;8.43;;;6.80;;
31680;SDS011;18281;51.364;9.566;2023-04-15T05:55:11;8.68;;;6.93;;
31680;SDS011;18281;51.364;9.566;2023-04-15T05:57:36;9.00;;;7.68;;
31680;SDS011;18281;51.364;9.566;2023-04-15T06:00:02;9.90;;;7.55;;
31680;SDS011;18281;51.364;9.566;2023-04-15T06:02:29;11.10;;;8.73;;
31680;SDS011;18281;51.364;9.566;2023-04-15T06:04:55;10.18;;;8.30;;
31680;SDS011;18281;51.364;9.566;2023-04-15T06:07:21;16.88;;;10.50;;
31680;SDS011;18281;51.364;9.566;2023-04-15T06:09:47;14.82;;;11.65;;
31680;SDS011;18281;51.364;9.566;2023-04-15T06:12:12;14.93;;;11.38;;
31680;SDS011;18281;51.364;9.566;2023-04-15T06:14:38;14.88;;;11.25;;
31680;SDS011;18281;51.364;9.566;2023-04-15T06:17:04;13.93;;;10.35;;
31680;SDS011;18281;51.364;9.566;2023-04-15T06:19:30;12.98;;;10.10;;
31680;SDS011;18281;51.364;9.566;2023-04-15T06:21:55;15.05;;;11.02;;
31680;SDS011;18281;51.364;9.566;2023-04-15T06:24:22;11.77;;;8.15;;
31680;SDS011;18281;51.364;9.566;2023-04-15T06:26:47;11.43;;;5.78;;
31680;SDS011;18281;51.364;9.566;2023-04-15T06:29:13;12.73;;;7.00;;
31680;SDS011;18281;51.364;9.566;2023-04-15T06:31:38;13.70;;;7.60;;
31680;SDS011;18281;51.364;9.566;2023-04-15T06:34:04;11.40;;;7.25;;
31680;SDS011;18281;51.364;9.566;2023-04-15T06:36:29;13.05;;;7.45;;
31680;SDS011;18281;51.364;9.566;2023-04-15T06:38:54;9.45;;;7.63;;
31680;SDS011;18281;51.364;9.566;2023-04-15T06:41:21;9.27;;;6.60;;
31680;SDS011;18281;51.364;9.566;2023-04-15T06:43:46;7.30;;;6.28;;
31680;SDS011;18281;51.364;9.566;2023-04-15T06:46:12;6.68;;;5.50;;
31680;SDS011;18281;51.364;9.566;2023-04-15T06:48:37;7.57;;;6.25;;
31680;SDS011;18281;51.364;9.566;2023-04-15T06:51:03;8.10;;;6.25;;
31680;SDS011;18281;51.364;9.566;2023-04-15T06:53:28;10.13;;;7.97;;
31680;SDS011;18281;51.364;9.566;2023-04-15T06:55:54;10.63;;;7.78;;
31680;SDS011;18281;51.364;9.566;2023-04-15T06:58:19;13.52;;;7.78;;
31680;SDS011;18281;51.364;9.566;2023-04-15T07:00:45;10.00;;;6.55;;
31680;SDS011;18281;51.364;9.566;2023-04-15T07:03:11;7.65;;;6.13;;
31680;SDS011;18281;51.364;9.566;2023-04-15T07:05:37;8.18;;;6.93;;
31680;SDS011;18281;51.364;9.566;2023-04-15T07:08:03;9.65;;;7.10;;
31680;SDS011;18281;51.364;9.566;2023-04-15T07:10:29;9.85;;;7.50;;
31680;SDS011;18281;51.364;9.566;2023-04-15T07:12:55;9.95;;;8.07;;
31680;SDS011;18281;51.364;9.566;2023-04-15T07:15:20;10.00;;;8.50;;
31680;SDS011;18281;51.364;9.566;2023-04-15T07:17:46;12.65;;;8.50;;
31680;SDS011;18281;51.364;9.566;2023-04-15T07:20:11;13.48;;;9.13;;
31680;SDS011;18281;51.364;9.566;2023-04-15T07:22:37;12.50;;;8.73;;
31680;SDS011;18281;51.364;9.566;2023-04-15T07:25:03;10.60;;;8.48;;
31680;SDS011;18281;51.364;9.566;2023-04-15T07:27:29;12.80;;;9.25;;
31680;SDS011;18281;51.364;9.566;2023-04-15T07:29:55;8.80;;;6.80;;
31680;SDS011;18281;51.364;9.566;2023-04-15T07:32:20;10.38;;;7.65;;
31680;SDS011;18281;51.364;9.566;2023-04-15T07:34:45;12.93;;;9.10;;
31680;SDS011;18281;51.364;9.566;2023-04-15T07:37:11;11.82;;;9.18;;
31680;SDS011;18281;51.364;9.566;2023-04-15T07:39:36;12.20;;;7.93;;
31680;SDS011;18281;51.364;9.566;2023-04-15T07:42:02;11.07;;;7.78;;
31680;SDS011;18281;51.364;9.566;2023-04-15T07:44:28;11.32;;;8.40;;
31680;SDS011;18281;51.364;9.566;2023-04-15T07:46:54;11.45;;;9.18;;
31680;SDS011;18281;51.364;9.566;2023-04-15T07:49:20;12.55;;;9.25;;
31680;SDS011;18281;51.364;9.566;2023-04-15T07:51:46;10.57;;;8.90;;
31680;SDS011;18281;51.364;9.566;2023-04-15T07:54:11;11.93;;;9.32;;
31680;SDS011;18281;51.364;9.566;2023-04-15T07:56:37;10.15;;;8.43;;
31680;SDS011;18281;51.364;9.566;2023-04-15T07:59:02;13.77;;;9.77;;
31680;SDS011;18281;51.364;9.566;2023-04-15T08:01:30;13.88;;;9.70;;
31680;SDS011;18281;51.364;9.566;2023-04-15T08:03:55;13.10;;;9.80;;
31680;SDS011;18281;51.364;9.566;2023-04-15T08:06:21;12.80;;;9.98;;
31680;SDS011;18281;51.364;9.566;2023-04-15T08:08:47;12.02;;;9.20;;
31680;SDS011;18281;51.364;9.566;2023-04-15T08:11:12;11.10;;;9.05;;
31680;SDS011;18281;51.364;9.566;2023-04-15T08:13:37;12.98;;;9.20;;
31680;SDS011;18281;51.364;9.566;2023-04-15T08:18:40;10.20;;;8.52;;
31680;SDS011;18281;51.364;9.566;2023-04-15T08:21:06;12.27;;;9.80;;
31680;SDS011;18281;51.364;9.566;2023-04-15T08:23:31;13.95;;;9.45;;
31680;SDS011;18281;51.364;9.566;2023-04-15T08:25:57;12.85;;;8.68;;
31680;SDS011;18281;51.364;9.566;2023-04-15T08:28:22;10.45;;;8.48;;
31680;SDS011;18281;51.364;9.566;2023-04-15T08:30:48;12.20;;;8.77;;
31680;SDS011;18281;51.364;9.566;2023-04-15T08:33:13;11.82;;;8.45;;
31680;SDS011;18281;51.364;9.566;2023-04-15T08:35:39;10.55;;;8.23;;
31680;SDS011;18281;51.364;9.566;2023-04-15T08:38:04;11.35;;;8.50;;
31680;SDS011;18281;51.364;9.566;2023-04-15T08:40:33;11.30;;;9.10;;
31680;SDS011;18281;51.364;9.566;2023-04-15T08:43:11;15.23;;;9.15;;
31680;SDS011;18281;51.364;9.566;2023-04-15T08:48:05;11.52;;;8.07;;
31680;SDS011;18281;51.364;9.566;2023-04-15T08:50:31;11.65;;;8.55;;
31680;SDS011;18281;51.364;9.566;2023-04-15T08:52:57;11.88;;;9.02;;
31680;SDS011;18281;51.364;9.566;2023-04-15T08:55:25;12.88;;;9.10;;
31680;SDS011;18281;51.364;9.566;2023-04-15T08:57:54;9.98;;;7.03;;
31680;SDS011;18281;51.364;9.566;2023-04-15T09:00:20;10.52;;;7.60;;
31680;SDS011;18281;51.364;9.566;2023-04-15T09:02:46;9.43;;;7.18;;
31680;SDS011;18281;51.364;9.566;2023-04-15T09:05:12;10.35;;;7.30;;
31680;SDS011;18281;51.364;9.566;2023-04-15T09:07:37;8.98;;;6.72;;
31680;SDS011;18281;51.364;9.566;2023-04-15T09:10:03;8.77;;;6.93;;
31680;SDS011;18281;51.364;9.566;2023-04-15T09:12:29;10.38;;;6.43;;
31680;SDS011;18281;51.364;9.566;2023-04-15T09:14:55;18.92;;;8.85;;
31680;SDS011;18281;51.364;9.566;2023-04-15T09:17:21;8.00;;;6.57;;
31680;SDS011;18281;51.364;9.566;2023-04-15T09:19:48;10.52;;;6.70;;
31680;SDS011;18281;51.364;9.566;2023-04-15T09:22:14;8.15;;;6.03;;
31680;SDS011;18281;51.364;9.566;2023-04-15T09:24:39;6.18;;;4.88;;
31680;SDS011;18281;51.364;9.566;2023-04-15T09:27:07;5.13;;;4.43;;
31680;SDS011;18281;51.364;9.566;2023-04-15T09:29:32;5.15;;;4.40;;
31680;SDS011;18281;51.364;9.566;2023-04-15T09:32:08;5.82;;;4.30;;
31680;SDS011;18281;51.364;9.566;2023-04-15T09:34:37;5.68;;;4.50;;
31680;SDS011;18281;51.364;9.566;2023-04-15T09:37:03;4.88;;;4.38;;
31680;SDS011;18281;51.364;9.566;2023-04-15T09:39:43;6.88;;;5.20;;
31680;SDS011;18281;51.364;9.566;2023-04-15T09:42:18;5.30;;;4.25;;
31680;SDS011;18281;51.364;9.566;2023-04-15T09:44:50;6.53;;;3.67;;
31680;SDS011;18281;51.364;9.566;2023-04-15T09:47:31;4.07;;;3.67;;
31680;SDS011;18281;51.364;9.566;2023-04-15T09:50:00;3.63;;;3.30;;
31680;SDS011;18281;51.364;9.566;2023-04-15T09:52:25;3.20;;;3.00;;
31680;SDS011;18281;51.364;9.566;2023-04-15T09:54:56;3.50;;;3.03;;
31680;SDS011;18281;51.364;9.566;2023-04-15T09:57:23;3.50;;;3.05;;
31680;SDS011;18281;51.364;9.566;2023-04-15T09:59:49;4.97;;;3.20;;
31680;SDS011;18281;51.364;9.566;2023-04-15T10:02:15;4.28;;;2.80;;
31680;SDS011;18281;51.364;9.566;2023-04-15T10:04:42;6.57;;;3.60;;
31680;SDS011;18281;51.364;9.566;2023-04-15T10:07:09;10.35;;;5.10;;
31680;SDS011;18281;51.364;9.566;2023-04-15T10:09:37;8.50;;;4.50;;
31680;SDS011;18281;51.364;9.566;2023-04-15T10:12:03;6.07;;;3.72;;
31680;SDS011;18281;51.364;9.566;2023-04-15T10:14:30;4.80;;;3.17;;
31680;SDS011;18281;51.364;9.566;2023-04-15T10:16:59;8.20;;;3.08;;
31680;SDS011;18281;51.364;9.566;2023-04-15T10:19:25;4.47;;;2.92;;
31680;SDS011;18281;51.364;9.566;2023-04-15T10:21:54;5.10;;;2.63;;
31680;SDS011;18281;51.364;9.566;2023-04-15T10:24:19;4.63;;;2.50;;
31680;SDS011;18281;51.364;9.566;2023-04-15T10:26:46;2.63;;;2.42;;
31680;SDS011;18281;51.364;9.566;2023-04-15T10:29:12;2.08;;;1.92;;
31680;SDS011;18281;51.364;9.566;2023-04-15T10:31:38;1.73;;;1.63;;
31680;SDS011;18281;51.364;9.566;2023-04-15T10:34:05;1.77;;;1.67;;
31680;SDS011;18281;51.364;9.566;2023-04-15T10:36:31;1.75;;;1.63;;
31680;SDS011;18281;51.364;9.566;2023-04-15T10:38:57;1.70;;;1.60;;
31680;SDS011;18281;51.364;9.566;2023-04-15T10:44:02;1.55;;;1.45;;
31680;SDS011;18281;51.364;9.566;2023-04-15T10:46:41;2.22;;;1.73;;
31680;SDS011;18281;51.364;9.566;2023-04-15T10:49:42;1.48;;;1.38;;
31680;SDS011;18281;51.364;9.566;2023-04-15T10:52:06;2.05;;;1.80;;
31680;SDS011;18281;51.364;9.566;2023-04-15T10:54:32;2.22;;;2.03;;
31680;SDS011;18281;51.364;9.566;2023-04-15T10:59:36;2.20;;;2.00;;
31680;SDS011;18281;51.364;9.566;2023-04-15T11:02:06;1.83;;;1.73;;
31680;SDS011;18281;51.364;9.566;2023-04-15T11:04:51;2.25;;;1.48;;
31680;SDS011;18281;51.364;9.566;2023-04-15T11:07:32;1.75;;;1.65;;
31680;SDS011;18281;51.364;9.566;2023-04-15T11:10:49;1.88;;;1.70;;
31680;SDS011;18281;51.364;9.566;2023-04-15T11:12:50;1.67;;;1.58;;
31680;SDS011;18281;51.364;9.566;2023-04-15T11:15:36;1.98;;;1.60;;
31680;SDS011;18281;51.364;9.566;2023-04-15T11:18:19;2.35;;;1.50;;
31680;SDS011;18281;51.364;9.566;2023-04-15T11:20:49;1.38;;;1.27;;
31680;SDS011;18281;51.364;9.566;2023-04-15T11:23:19;1.88;;;1.70;;
31680;SDS011;18281;51.364;9.566;2023-04-15T11:26:00;1.50;;;1.40;;
31680;SDS011;18281;51.364;9.566;2023-04-15T11:28:29;1.60;;;1.50;;
31680;SDS011;18281;51.364;9.566;2023-04-15T11:30:56;1.70;;;1.50;;
31680;SDS011;18281;51.364;9.566;2023-04-15T11:33:23;1.70;;;1.60;;
31680;SDS011;18281;51.364;9.566;2023-04-15T11:35:49;2.65;;;2.10;;
31680;SDS011;18281;51.364;9.566;2023-04-15T11:38:16;1.48;;;1.38;;
31680;SDS011;18281;51.364;9.566;2023-04-15T11:40:42;1.30;;;1.20;;
31680;SDS011;18281;51.364;9.566;2023-04-15T11:43:09;1.70;;;1.40;;
31680;SDS011;18281;51.364;9.566;2023-04-15T11:45:51;1.52;;;1.35;;
31680;SDS011;18281;51.364;9.566;2023-04-15T11:48:19;1.23;;;1.13;;
31680;SDS011;18281;51.364;9.566;2023-04-15T11:50:51;4.38;;;1.58;;
31680;SDS011;18281;51.364;9.566;2023-04-15T11:53:18;2.58;;;1.08;;
31680;SDS011;18281;51.364;9.566;2023-04-15T11:55:47;2.38;;;1.27;;
31680;SDS011;18281;51.364;9.566;2023-04-15T11:58:15;2.90;;;1.40;;
31680;SDS011;18281;51.364;9.566;2023-04-15T12:00:42;2.83;;;0.90;;
31680;SDS011;18281;51.364;9.566;2023-04-15T12:06:03;4.35;;;1.08;;
31680;SDS011;18281;51.364;9.566;2023-04-15T12:11:32;2.33;;;1.05;;
31680;SDS011;18281;51.364;9.566;2023-04-15T12:14:04;5.45;;;1.70;;
31680;SDS011;18281;51.364;9.566;2023-04-15T12:16:29;3.42;;;0.90;;
31680;SDS011;18281;51.364;9.566;2023-04-15T12:18:56;1.58;;;1.48;;
31680;SDS011;18281;51.364;9.566;2023-04-15T12:21:26;1.88;;;1.40;;
31680;SDS011;18281;51.364;9.566;2023-04-15T12:24:00;1.60;;;1.50;;
31680;SDS011;18281;51.364;9.566;2023-04-15T12:26:27;1.75;;;1.65;;
31680;SDS011;18281;51.364;9.566;2023-04-15T12:29:15;1.83;;;1.73;;
31680;SDS011;18281;51.364;9.566;2023-04-15T12:31:50;1.42;;;1.30;;
31680;SDS011;18281;51.364;9.566;2023-04-15T12:34:27;3.42;;;2.15;;
31680;SDS011;18281;51.364;9.566;2023-04-15T12:36:58;5.10;;;1.65;;
31680;SDS011;18281;51.364;9.566;2023-04-15T12:39:26;3.65;;;1.52;;
31680;SDS011;18281;51.364;9.566;2023-04-15T12:41:52;3.88;;;1.38;;
31680;SDS011;18281;51.364;9.566;2023-04-15T12:44:19;2.28;;;1.35;;
31680;SDS011;18281;51.364;9.566;2023-04-15T12:46:46;4.72;;;1.50;;
31680;SDS011;18281;51.364;9.566;2023-04-15T12:49:12;4.97;;;1.45;;
31680;SDS011;18281;51.364;9.566;2023-04-15T12:51:39;4.13;;;1.40;;
31680;SDS011;18281;51.364;9.566;2023-04-15T12:54:05;5.05;;;1.67;;
31680;SDS011;18281;51.364;9.566;2023-04-15T12:56:30;2.25;;;1.45;;
31680;SDS011;18281;51.364;9.566;2023-04-15T12:58:56;3.53;;;1.60;;
31680;SDS011;18281;51.364;9.566;2023-04-15T13:01:21;6.57;;;1.50;;
31680;SDS011;18281;51.364;9.566;2023-04-15T13:03:47;5.78;;;1.85;;
31680;SDS011;18281;51.364;9.566;2023-04-15T13:06:12;4.10;;;1.80;;
31680;SDS011;18281;51.364;9.566;2023-04-15T13:08:38;2.65;;;1.65;;
31680;SDS011;18281;51.364;9.566;2023-04-15T13:11:03;2.55;;;1.63;;
31680;SDS011;18281;51.364;9.566;2023-04-15T13:13:28;5.57;;;2.65;;
31680;SDS011;18281;51.364;9.566;2023-04-15T13:15:56;3.80;;;2.42;;
31680;SDS011;18281;51.364;9.566;2023-04-15T13:18:21;2.58;;;2.38;;
31680;SDS011;18281;51.364;9.566;2023-04-15T13:20:47;4.13;;;2.40;;
31680;SDS011;18281;51.364;9.566;2023-04-15T13:23:13;4.10;;;1.90;;
31680;SDS011;18281;51.364;9.566;2023-04-15T13:25:39;2.30;;;2.10;;
31680;SDS011;18281;51.364;9.566;2023-04-15T13:28:04;4.03;;;1.80;;
31680;SDS011;18281;51.364;9.566;2023-04-15T13:30:30;2.53;;;2.33;;
31680;SDS011;18281;51.364;9.566;2023-04-15T13:32:55;3.72;;;2.95;;
31680;SDS011;18281;51.364;9.566;2023-04-15T13:35:21;3.28;;;2.97;;
31680;SDS011;18281;51.364;9.566;2023-04-15T13:37:46;2.60;;;2.30;;
31680;SDS011;18281;51.364;9.566;2023-04-15T13:40:12;2.80;;;2.60;;
31680;SDS011;18281;51.364;9.566;2023-04-15T13:42:37;3.03;;;2.80;;
31680;SDS011;18281;51.364;9.566;2023-04-15T13:45:02;3.20;;;2.95;;
31680;SDS011;18281;51.364;9.566;2023-04-15T13:47:28;4.72;;;2.90;;
31680;SDS011;18281;51.364;9.566;2023-04-15T13:49:53;2.78;;;2.58;;
31680;SDS011;18281;51.364;9.566;2023-04-15T13:52:20;2.70;;;2.50;;
31680;SDS011;18281;51.364;9.566;2023-04-15T13:54:46;3.47;;;3.20;;
31680;SDS011;18281;51.364;9.566;2023-04-15T13:57:12;3.03;;;2.72;;
31680;SDS011;18281;51.364;9.566;2023-04-15T13:59:37;2.72;;;2.45;;
31680;SDS011;18281;51.364;9.566;2023-04-15T14:02:02;3.03;;;2.72;;
31680;SDS011;18281;51.364;9.566;2023-04-15T14:04:29;2.72;;;2.53;;
31680;SDS011;18281;51.364;9.566;2023-04-15T14:06:55;2.90;;;2.70;;
31680;SDS011;18281;51.364;9.566;2023-04-15T14:09:20;3.47;;;3.00;;
31680;SDS011;18281;51.364;9.566;2023-04-15T14:11:47;3.15;;;2.85;;
31680;SDS011;18281;51.364;9.566;2023-04-15T14:14:13;2.83;;;2.55;;
31680;SDS011;18281;51.364;9.566;2023-04-15T14:16:39;3.70;;;3.40;;
31680;SDS011;18281;51.364;9.566;2023-04-15T14:19:04;5.18;;;3.25;;
31680;SDS011;18281;51.364;9.566;2023-04-15T14:21:30;2.63;;;2.42;;
31680;SDS011;18281;51.364;9.566;2023-04-15T14:23:56;2.80;;;2.53;;
31680;SDS011;18281;51.364;9.566;2023-04-15T14:26:22;2.63;;;2.42;;
31680;SDS011;18281;51.364;9.566;2023-04-15T14:28:48;3.92;;;3.38;;
31680;SDS011;18281;51.364;9.566;2023-04-15T14:31:13;4.25;;;3.70;;
31680;SDS011;18281;51.364;9.566;2023-04-15T14:33:39;5.20;;;4.70;;
31680;SDS011;18281;51.364;9.566;2023-04-15T14:36:05;3.65;;;3.35;;
31680;SDS011;18281;51.364;9.566;2023-04-15T14:38:35;4.38;;;3.97;;
31680;SDS011;18281;51.364;9.566;2023-04-15T14:41:07;4.70;;;3.88;;
31680;SDS011;18281;51.364;9.566;2023-04-15T14:43:33;4.05;;;3.70;;
31680;SDS011;18281;51.364;9.566;2023-04-15T14:45:58;5.35;;;4.13;;
31680;SDS011;18281;51.364;9.566;2023-04-15T14:48:24;4.70;;;4.30;;
31680;SDS011;18281;51.364;9.566;2023-04-15T14:50:49;4.45;;;4.05;;
31680;SDS011;18281;51.364;9.566;2023-04-15T14:53:15;5.65;;;4.57;;
31680;SDS011;18281;51.364;9.566;2023-04-15T14:55:40;4.60;;;3.70;;
31680;SDS011;18281;51.364;9.566;2023-04-15T14:58:06;3.80;;;3.47;;
31680;SDS011;18281;51.364;9.566;2023-04-15T15:00:33;5.88;;;4.00;;